createdAt,value
2022-12-02T00:02:08.197Z,4.10
2022-12-02T00:06:36.473Z,4.00
2022-12-02T00:10:40.935Z,4.10
2022-12-02T00:15:34.892Z,4.00
2022-12-02T00:19:38.032Z,4.00
2022-12-02T00:24:12.141Z,4.00
2022-12-02T00:28:16.934Z,4.10
2022-12-02T00:32:50.687Z,4.10
2022-12-02T00:36:53.915Z,4.10
2022-12-02T00:40:56.946Z,4.10
2022-12-02T00:45:18.788Z,4.10
2022-12-02T00:49:37.029Z,4.10
2022-12-02T00:53:40.104Z,4.10
2022-12-02T00:57:43.127Z,4.10
2022-12-02T01:02:19.952Z,4.00
2022-12-02T01:06:24.702Z,4.10
2022-12-02T01:10:58.823Z,4.00
2022-12-02T01:15:01.929Z,4.10
2022-12-02T01:19:05.368Z,4.00
2022-12-02T01:23:09.965Z,4.00
2022-12-02T01:27:13.279Z,4.00
2022-12-02T01:31:16.388Z,4.00
2022-12-02T01:35:53.157Z,4.00
2022-12-02T01:39:57.560Z,4.00
2022-12-02T01:44:00.676Z,4.00
2022-12-02T01:48:38.116Z,4.00
2022-12-02T01:52:56.383Z,4.00
2022-12-02T01:57:02.807Z,4.00
2022-12-02T02:01:24.044Z,4.00
2022-12-02T02:05:31.118Z,4.00
2022-12-02T02:10:08.992Z,4.00
2022-12-02T02:14:14.612Z,4.00
2022-12-02T02:18:18.046Z,4.00
2022-12-02T02:22:57.747Z,4.00
2022-12-02T02:27:02.222Z,4.00
2022-12-02T02:31:05.929Z,4.00
2022-12-02T02:35:43.530Z,3.90
2022-12-02T02:39:46.589Z,3.90
2022-12-02T02:44:25.823Z,3.90
2022-12-02T02:48:31.184Z,3.90
2022-12-02T02:53:05.637Z,3.80
2022-12-02T02:57:09.908Z,3.90
2022-12-02T03:01:15.150Z,3.90
2022-12-02T03:05:51.951Z,3.90
2022-12-02T03:09:55.217Z,3.90
2022-12-02T03:14:29.043Z,3.80
2022-12-02T03:19:06.183Z,3.80
2022-12-02T03:23:42.877Z,3.80
2022-12-02T03:28:21.125Z,3.80
2022-12-02T03:32:55.668Z,3.80
2022-12-02T03:37:00.094Z,3.80
2022-12-02T03:41:34.119Z,3.70
2022-12-02T03:46:13.007Z,3.80
2022-12-02T03:50:46.586Z,3.80
2022-12-02T03:55:23.366Z,3.80
2022-12-02T03:59:28.625Z,3.80
2022-12-02T04:03:33.430Z,3.70
2022-12-02T04:08:07.326Z,3.70
2022-12-02T04:12:44.319Z,3.70
2022-12-02T04:17:20.961Z,3.70
2022-12-02T04:21:59.016Z,3.70
2022-12-02T04:26:02.183Z,3.70
2022-12-02T04:30:38.746Z,3.70
2022-12-02T04:34:41.884Z,3.70
2022-12-02T04:38:46.308Z,3.70
2022-12-02T04:42:49.397Z,3.70
2022-12-02T04:47:26.616Z,3.70
2022-12-02T04:51:29.675Z,3.70
2022-12-02T04:56:08.371Z,3.70
2022-12-02T05:00:42.284Z,3.70
2022-12-02T05:05:19.309Z,3.60
2022-12-02T05:09:56.641Z,3.60
2022-12-02T05:14:01.151Z,3.60
2022-12-02T05:18:04.179Z,3.60
2022-12-02T05:22:47.595Z,3.60
2022-12-02T05:27:24.352Z,3.60
2022-12-02T05:32:02.753Z,3.50
2022-12-02T05:36:36.625Z,3.50
2022-12-02T05:41:13.152Z,3.50
2022-12-02T05:45:20.629Z,3.50
2022-12-02T05:49:53.087Z,3.50
2022-12-02T05:54:27.851Z,3.50
2022-12-02T05:59:02.972Z,3.40
2022-12-02T06:03:39.686Z,3.50
2022-12-02T06:08:16.832Z,3.40
2022-12-02T06:12:55.424Z,3.40
2022-12-02T06:17:29.197Z,3.40
2022-12-02T06:22:12.719Z,3.40
2022-12-02T06:26:51.736Z,3.40
2022-12-02T06:31:31.214Z,3.40
2022-12-02T06:36:03.985Z,3.40
2022-12-02T06:40:28.364Z,3.40
2022-12-02T06:45:01.288Z,3.40
2022-12-02T06:49:23.182Z,3.30
2022-12-02T06:53:32.207Z,3.30
2022-12-02T06:58:21.791Z,3.30
2022-12-02T07:02:42.902Z,3.30
2022-12-02T07:07:20.798Z,3.30
2022-12-02T07:11:46.493Z,3.30
2022-12-02T07:16:44.349Z,3.30
2022-12-02T07:21:21.218Z,3.20
2022-12-02T07:26:01.285Z,3.20
2022-12-02T07:30:34.925Z,3.20
2022-12-02T07:34:38.021Z,3.20
2022-12-02T07:39:11.837Z,3.20
2022-12-02T07:43:50.105Z,3.20
2022-12-02T07:48:23.944Z,3.20
2022-12-02T07:53:00.669Z,3.10
2022-12-02T07:57:37.599Z,3.10
2022-12-02T08:02:16.125Z,3.10
2022-12-02T08:06:50.065Z,3.00
2022-12-02T08:10:53.088Z,3.10
2022-12-02T08:14:56.098Z,3.00
2022-12-02T08:19:34.735Z,3.00
2022-12-02T08:24:11.775Z,3.00
2022-12-02T08:28:48.406Z,3.00
2022-12-02T08:33:23.133Z,3.00
2022-12-02T08:38:01.754Z,3.00
2022-12-02T08:42:05.134Z,3.00
2022-12-02T08:46:08.534Z,3.00
2022-12-02T08:50:45.120Z,2.90
2022-12-02T08:55:23.286Z,2.90
2022-12-02T08:59:57.338Z,2.90
2022-12-02T09:04:33.819Z,3.00
2022-12-02T09:09:11.067Z,2.90
2022-12-02T09:13:15.505Z,2.90
2022-12-02T09:17:18.704Z,2.90
2022-12-02T09:21:21.731Z,3.00
2022-12-02T09:25:59.238Z,2.90
2022-12-02T09:30:35.861Z,2.80
2022-12-02T09:35:12.717Z,2.80
2022-12-02T09:39:54.471Z,2.70
2022-12-02T09:44:28.615Z,2.70
2022-12-02T09:49:05.790Z,2.80
2022-12-02T09:53:43.066Z,3.00
2022-12-02T09:57:48.459Z,3.10
2022-12-02T10:02:22.470Z,3.00
2022-12-02T10:06:59.357Z,3.00
2022-12-02T10:11:36.733Z,2.90
2022-12-02T10:16:34.513Z,2.90
2022-12-02T10:21:13.015Z,2.90
2022-12-02T10:25:48.020Z,2.90
2022-12-02T10:30:27.143Z,3.00
2022-12-02T10:34:32.911Z,3.00
2022-12-02T10:38:40.468Z,2.90
2022-12-02T10:43:12.377Z,2.90
2022-12-02T10:47:45.974Z,2.80
2022-12-02T10:52:22.818Z,2.80
2022-12-02T10:57:02.490Z,2.80
2022-12-02T11:01:41.797Z,2.80
2022-12-02T11:06:16.285Z,2.80
2022-12-02T11:10:51.023Z,2.80
2022-12-02T11:15:48.869Z,2.80
2022-12-02T11:20:28.816Z,2.80
2022-12-02T11:25:07.199Z,2.80
2022-12-02T11:29:41.970Z,2.80
2022-12-02T11:34:22.299Z,2.90
2022-12-02T11:38:27.176Z,2.90
2022-12-02T11:42:33.515Z,2.90
2022-12-02T11:47:07.399Z,2.90
2022-12-02T11:51:44.098Z,2.90
2022-12-02T11:56:21.193Z,2.90
2022-12-02T12:01:03.337Z,2.90
2022-12-02T12:05:37.336Z,2.90
2022-12-02T12:10:17.265Z,2.90
2022-12-02T12:14:24.575Z,2.90
2022-12-02T12:19:04.136Z,2.90
2022-12-02T12:23:36.425Z,2.90
2022-12-02T12:28:13.214Z,3.00
2022-12-02T12:32:50.120Z,3.00
2022-12-02T12:37:43.913Z,3.00
2022-12-02T12:42:13.496Z,2.90
2022-12-02T12:46:47.223Z,2.90
2022-12-02T12:51:23.933Z,2.80
2022-12-02T12:56:01.295Z,2.80
2022-12-02T13:00:39.634Z,2.80
2022-12-02T13:05:13.342Z,2.80
2022-12-02T13:09:50.525Z,2.80
2022-12-02T13:13:53.719Z,2.70
2022-12-02T13:18:31.841Z,2.70
2022-12-02T13:22:34.982Z,2.70
2022-12-02T13:26:38.105Z,2.70
2022-12-02T13:30:42.936Z,2.60
2022-12-02T13:34:47.810Z,2.60
2022-12-02T13:38:50.904Z,2.60
2022-12-02T13:43:24.990Z,2.60
2022-12-02T13:48:02.117Z,2.50
2022-12-02T13:52:40.488Z,2.50
2022-12-02T13:57:14.152Z,2.50
2022-12-02T14:01:17.557Z,2.50
2022-12-02T14:05:54.516Z,2.50
2022-12-02T14:09:58.989Z,2.50
2022-12-02T14:14:01.982Z,2.50
2022-12-02T14:18:05.335Z,2.50
2022-12-02T14:22:42.542Z,2.50
2022-12-02T14:27:21.102Z,2.50
2022-12-02T14:31:55.158Z,2.50
2022-12-02T14:35:58.238Z,2.50
2022-12-02T14:40:04.140Z,2.50
2022-12-02T14:44:08.908Z,2.40
2022-12-02T14:48:12.136Z,2.40
2022-12-02T14:52:46.030Z,2.30
2022-12-02T14:56:49.388Z,2.40
2022-12-02T15:01:27.878Z,2.40
2022-12-02T15:05:30.985Z,2.40
2022-12-02T15:09:34.374Z,2.40
2022-12-02T15:13:37.485Z,2.40
2022-12-02T15:17:42.029Z,2.40
2022-12-02T15:21:45.058Z,2.40
2022-12-02T15:26:21.889Z,2.40
2022-12-02T15:30:59.696Z,2.30
2022-12-02T15:35:04.393Z,2.30
2022-12-02T15:39:38.097Z,2.30
2022-12-02T15:44:14.804Z,2.20
2022-12-02T15:48:17.827Z,2.30
2022-12-02T15:52:54.425Z,2.20
2022-12-02T15:57:32.988Z,2.20
2022-12-02T16:02:06.956Z,2.20
2022-12-02T16:06:43.757Z,2.20
2022-12-02T16:11:20.674Z,2.20
2022-12-02T16:15:25.189Z,2.20
2022-12-02T16:19:58.622Z,2.20
2022-12-02T16:24:35.091Z,2.20
2022-12-02T16:29:11.985Z,2.20
2022-12-02T16:33:48.902Z,2.20
2022-12-02T16:38:25.558Z,2.20
2022-12-02T16:43:03.840Z,2.20
2022-12-02T16:47:40.800Z,2.20
2022-12-02T16:52:18.003Z,2.20
2022-12-02T16:56:21.097Z,2.20
2022-12-02T17:00:25.550Z,2.20
2022-12-02T17:04:59.281Z,2.20
2022-12-02T17:09:36.381Z,2.20
2022-12-02T17:13:39.573Z,2.20
2022-12-02T17:18:16.118Z,2.20
2022-12-02T17:22:20.539Z,2.20
2022-12-02T17:26:23.634Z,2.20
2022-12-02T17:30:57.857Z,2.20
2022-12-02T17:35:00.992Z,2.20
2022-12-02T17:39:05.418Z,2.20
2022-12-02T17:43:08.462Z,2.30
2022-12-02T17:47:11.580Z,2.20
2022-12-02T17:52:18.123Z,2.20
2022-12-02T17:56:28.153Z,2.20
2022-12-02T18:00:33.071Z,2.20
2022-12-02T18:05:07.682Z,2.20
2022-12-02T18:09:10.759Z,2.20
2022-12-02T18:13:15.665Z,2.20
2022-12-02T18:17:30.633Z,2.20
2022-12-02T18:21:33.881Z,2.20
2022-12-02T18:25:37.236Z,2.20
2022-12-02T18:29:43.658Z,2.20
2022-12-02T18:33:48.968Z,2.20
2022-12-02T18:38:22.711Z,2.20
2022-12-02T18:42:25.863Z,2.20
2022-12-02T18:46:30.369Z,2.20
2022-12-02T18:50:33.479Z,2.20
2022-12-02T18:55:09.885Z,2.20
2022-12-02T18:59:46.889Z,2.20
2022-12-02T19:03:51.500Z,2.20
2022-12-02T19:07:54.679Z,2.20
2022-12-02T19:11:57.774Z,2.30
2022-12-02T19:16:00.968Z,2.30
2022-12-02T19:20:06.891Z,2.30
2022-12-02T19:24:40.685Z,2.20
2022-12-02T19:29:17.453Z,2.20
2022-12-02T19:33:54.318Z,2.20
2022-12-02T19:38:32.616Z,2.20
2022-12-02T19:42:35.682Z,2.20
2022-12-02T19:47:12.328Z,2.20
2022-12-02T19:51:49.177Z,2.20
2022-12-02T19:55:53.821Z,2.20
2022-12-02T19:59:56.816Z,2.30
2022-12-02T20:04:41.335Z,2.30
2022-12-02T20:09:10.041Z,2.20
2022-12-02T20:13:14.492Z,2.30
2022-12-02T20:17:29.179Z,2.30
2022-12-02T20:21:32.298Z,2.30
2022-12-02T20:25:35.399Z,2.40
2022-12-02T20:30:11.942Z,2.40
2022-12-02T20:34:16.379Z,2.30
2022-12-02T20:38:49.842Z,2.40
2022-12-02T20:42:52.888Z,2.40
2022-12-02T20:46:55.975Z,2.40
2022-12-02T20:51:31.399Z,2.40
2022-12-02T20:55:35.695Z,2.40
2022-12-02T20:59:38.789Z,2.40
2022-12-02T21:03:41.817Z,2.50
2022-12-02T21:07:46.493Z,2.50
2022-12-02T21:11:49.626Z,2.50
2022-12-02T21:15:52.853Z,2.50
2022-12-02T21:20:26.719Z,2.50
2022-12-02T21:24:31.094Z,2.50
2022-12-02T21:28:34.342Z,2.60
2022-12-02T21:32:37.409Z,2.60
2022-12-02T21:37:14.186Z,2.60
2022-12-02T21:41:18.608Z,2.50
2022-12-02T21:45:21.702Z,2.60
2022-12-02T21:49:24.857Z,2.50
2022-12-02T21:54:01.419Z,2.60
2022-12-02T21:58:05.901Z,2.60
2022-12-02T22:02:09.146Z,2.50
2022-12-02T22:06:43.031Z,2.60
2022-12-02T22:10:46.049Z,2.60
2022-12-02T22:14:52.269Z,2.50
2022-12-02T22:18:56.073Z,2.60
2022-12-02T22:22:59.352Z,2.70
2022-12-02T22:27:36.279Z,2.60
2022-12-02T22:31:40.970Z,2.60
2022-12-02T22:35:44.051Z,2.60
2022-12-02T22:39:47.048Z,2.50
2022-12-02T22:43:50.174Z,2.50
2022-12-02T22:48:29.272Z,2.50
2022-12-02T22:52:32.298Z,2.50
2022-12-02T22:56:35.412Z,2.50
2022-12-02T23:00:39.247Z,2.50
2022-12-02T23:05:17.359Z,2.40
2022-12-02T23:09:20.521Z,2.50
2022-12-02T23:13:23.678Z,2.50
2022-12-02T23:18:02.625Z,2.50
2022-12-02T23:22:36.445Z,2.50
2022-12-02T23:26:40.923Z,2.50
2022-12-02T23:30:43.995Z,2.50
2022-12-02T23:34:47.216Z,2.60
2022-12-02T23:38:50.412Z,2.60
2022-12-02T23:42:54.835Z,2.50
2022-12-02T23:47:28.701Z,2.50
2022-12-02T23:51:31.764Z,2.60
2022-12-02T23:55:34.756Z,2.60
2022-12-02T23:59:39.473Z,2.60
